sensor_id;sensor_type;location;lat;lon;timestamp;P1;durP1;ratioP1;P2;durP2;ratioP2
29236;SDS011;16266;50.866;4.398;2023-08-20T00:00:54;412.30;;;392.75;;
29236;SDS011;16266;50.866;4.398;2023-08-20T00:03:20;413.23;;;393.25;;
29236;SDS011;16266;50.866;4.398;2023-08-20T00:05:46;408.13;;;388.27;;
29236;SDS011;16266;50.866;4.398;2023-08-20T00:08:13;393.10;;;373.42;;
29236;SDS011;16266;50.866;4.398;2023-08-20T00:10:39;332.20;;;316.67;;
29236;SDS011;16266;50.866;4.398;2023-08-20T00:13:05;311.38;;;296.73;;
29236;SDS011;16266;50.866;4.398;2023-08-20T00:15:31;285.63;;;272.90;;
29236;SDS011;16266;50.866;4.398;2023-08-20T00:17:57;288.60;;;275.92;;
29236;SDS011;16266;50.866;4.398;2023-08-20T00:20:23;287.02;;;274.33;;
29236;SDS011;16266;50.866;4.398;2023-08-20T00:22:49;281.10;;;268.90;;
29236;SDS011;16266;50.866;4.398;2023-08-20T00:25:16;273.20;;;261.48;;
29236;SDS011;16266;50.866;4.398;2023-08-20T00:27:42;266.38;;;255.02;;
29236;SDS011;16266;50.866;4.398;2023-08-20T00:30:09;299.42;;;287.02;;
29236;SDS011;16266;50.866;4.398;2023-08-20T00:32:35;423.25;;;404.67;;
29236;SDS011;16266;50.866;4.398;2023-08-20T00:35:02;516.60;;;492.42;;
29236;SDS011;16266;50.866;4.398;2023-08-20T00:37:28;545.25;;;519.25;;
29236;SDS011;16266;50.866;4.398;2023-08-20T00:39:54;595.25;;;566.50;;
29236;SDS011;16266;50.866;4.398;2023-08-20T00:42:20;472.92;;;451.75;;
29236;SDS011;16266;50.866;4.398;2023-08-20T00:44:46;471.80;;;450.75;;
29236;SDS011;16266;50.866;4.398;2023-08-20T00:47:12;499.05;;;476.38;;
29236;SDS011;16266;50.866;4.398;2023-08-20T00:49:39;511.45;;;487.55;;
29236;SDS011;16266;50.866;4.398;2023-08-20T00:52:06;483.25;;;461.48;;
29236;SDS011;16266;50.866;4.398;2023-08-20T00:54:34;442.63;;;423.10;;
29236;SDS011;16266;50.866;4.398;2023-08-20T00:57:00;443.80;;;424.38;;
29236;SDS011;16266;50.866;4.398;2023-08-20T00:59:27;388.85;;;372.65;;
29236;SDS011;16266;50.866;4.398;2023-08-20T01:01:55;277.02;;;265.73;;
29236;SDS011;16266;50.866;4.398;2023-08-20T01:04:20;266.02;;;254.93;;
29236;SDS011;16266;50.866;4.398;2023-08-20T01:09:50;268.35;;;257.35;;
29236;SDS011;16266;50.866;4.398;2023-08-20T01:12:38;435.35;;;416.63;;
29236;SDS011;16266;50.866;4.398;2023-08-20T01:15:04;534.22;;;510.15;;
29236;SDS011;16266;50.866;4.398;2023-08-20T01:17:30;558.70;;;533.22;;
29236;SDS011;16266;50.866;4.398;2023-08-20T01:19:56;541.95;;;516.90;;
29236;SDS011;16266;50.866;4.398;2023-08-20T01:25:17;547.55;;;521.75;;
29236;SDS011;16266;50.866;4.398;2023-08-20T01:33:13;573.00;;;545.25;;
29236;SDS011;16266;50.866;4.398;2023-08-20T01:35:40;550.25;;;523.42;;
29236;SDS011;16266;50.866;4.398;2023-08-20T01:38:05;544.75;;;517.92;;
29236;SDS011;16266;50.866;4.398;2023-08-20T01:40:31;500.67;;;476.20;;
29236;SDS011;16266;50.866;4.398;2023-08-20T01:42:57;458.63;;;437.20;;
29236;SDS011;16266;50.866;4.398;2023-08-20T01:45:23;400.73;;;382.25;;
29236;SDS011;16266;50.866;4.398;2023-08-20T01:47:49;372.88;;;355.90;;
29236;SDS011;16266;50.866;4.398;2023-08-20T01:50:15;319.90;;;305.75;;
29236;SDS011;16266;50.866;4.398;2023-08-20T01:52:40;285.52;;;273.15;;
29236;SDS011;16266;50.866;4.398;2023-08-20T01:55:06;277.23;;;265.35;;
29236;SDS011;16266;50.866;4.398;2023-08-20T01:57:32;253.90;;;243.18;;
29236;SDS011;16266;50.866;4.398;2023-08-20T01:59:58;240.05;;;229.98;;
29236;SDS011;16266;50.866;4.398;2023-08-20T02:02:24;271.15;;;259.67;;
29236;SDS011;16266;50.866;4.398;2023-08-20T02:04:50;254.50;;;243.65;;
29236;SDS011;16266;50.866;4.398;2023-08-20T02:07:16;286.00;;;273.73;;
29236;SDS011;16266;50.866;4.398;2023-08-20T02:09:41;356.08;;;340.58;;
29236;SDS011;16266;50.866;4.398;2023-08-20T02:12:07;355.92;;;339.73;;
29236;SDS011;16266;50.866;4.398;2023-08-20T02:14:34;370.90;;;354.27;;
29236;SDS011;16266;50.866;4.398;2023-08-20T02:17:02;356.60;;;339.90;;
29236;SDS011;16266;50.866;4.398;2023-08-20T02:19:29;422.63;;;403.33;;
29236;SDS011;16266;50.866;4.398;2023-08-20T02:21:54;440.60;;;420.13;;
29236;SDS011;16266;50.866;4.398;2023-08-20T02:24:20;480.23;;;457.55;;
29236;SDS011;16266;50.866;4.398;2023-08-20T02:26:46;517.28;;;492.60;;
29236;SDS011;16266;50.866;4.398;2023-08-20T02:29:11;560.65;;;533.45;;
29236;SDS011;16266;50.866;4.398;2023-08-20T02:31:37;580.17;;;552.17;;
29236;SDS011;16266;50.866;4.398;2023-08-20T02:34:02;614.10;;;584.60;;
29236;SDS011;16266;50.866;4.398;2023-08-20T02:36:28;654.63;;;621.33;;
29236;SDS011;16266;50.866;4.398;2023-08-20T02:38:54;617.70;;;587.03;;
29236;SDS011;16266;50.866;4.398;2023-08-20T02:41:20;511.70;;;486.83;;
29236;SDS011;16266;50.866;4.398;2023-08-20T02:43:45;498.48;;;474.00;;
29236;SDS011;16266;50.866;4.398;2023-08-20T02:46:11;496.42;;;471.73;;
29236;SDS011;16266;50.866;4.398;2023-08-20T02:48:37;457.88;;;435.08;;
29236;SDS011;16266;50.866;4.398;2023-08-20T02:51:02;376.88;;;358.55;;
29236;SDS011;16266;50.866;4.398;2023-08-20T02:53:28;291.13;;;278.75;;
29236;SDS011;16266;50.866;4.398;2023-08-20T02:55:54;325.17;;;311.30;;
29236;SDS011;16266;50.866;4.398;2023-08-20T02:58:21;311.02;;;297.92;;
29236;SDS011;16266;50.866;4.398;2023-08-20T03:00:47;298.25;;;285.65;;
29236;SDS011;16266;50.866;4.398;2023-08-20T03:03:12;300.13;;;287.75;;
29236;SDS011;16266;50.866;4.398;2023-08-20T03:05:38;298.13;;;285.88;;
29236;SDS011;16266;50.866;4.398;2023-08-20T03:08:03;330.25;;;316.77;;
29236;SDS011;16266;50.866;4.398;2023-08-20T03:10:30;383.38;;;366.98;;
29236;SDS011;16266;50.866;4.398;2023-08-20T03:12:59;487.98;;;465.50;;
29236;SDS011;16266;50.866;4.398;2023-08-20T03:15:26;576.47;;;548.25;;
29236;SDS011;16266;50.866;4.398;2023-08-20T03:17:52;593.35;;;563.03;;
29236;SDS011;16266;50.866;4.398;2023-08-20T03:20:18;553.08;;;525.58;;
29236;SDS011;16266;50.866;4.398;2023-08-20T03:22:44;510.48;;;485.83;;
29236;SDS011;16266;50.866;4.398;2023-08-20T03:25:10;480.20;;;457.38;;
29236;SDS011;16266;50.866;4.398;2023-08-20T03:27:36;475.88;;;453.05;;
29236;SDS011;16266;50.866;4.398;2023-08-20T03:30:02;489.95;;;466.52;;
29236;SDS011;16266;50.866;4.398;2023-08-20T03:32:29;495.85;;;471.88;;
29236;SDS011;16266;50.866;4.398;2023-08-20T03:34:54;464.40;;;442.58;;
29236;SDS011;16266;50.866;4.398;2023-08-20T03:37:21;365.77;;;349.67;;
29236;SDS011;16266;50.866;4.398;2023-08-20T03:39:47;313.38;;;299.65;;
29236;SDS011;16266;50.866;4.398;2023-08-20T03:42:13;309.10;;;295.95;;
29236;SDS011;16266;50.866;4.398;2023-08-20T03:44:38;307.45;;;294.60;;
29236;SDS011;16266;50.866;4.398;2023-08-20T03:47:04;308.33;;;295.02;;
29236;SDS011;16266;50.866;4.398;2023-08-20T03:49:30;301.08;;;288.60;;
29236;SDS011;16266;50.866;4.398;2023-08-20T03:51:56;269.35;;;258.10;;
29236;SDS011;16266;50.866;4.398;2023-08-20T03:54:23;284.33;;;272.40;;
29236;SDS011;16266;50.866;4.398;2023-08-20T03:56:49;287.60;;;275.38;;
29236;SDS011;16266;50.866;4.398;2023-08-20T03:59:14;276.00;;;264.08;;
29236;SDS011;16266;50.866;4.398;2023-08-20T04:01:40;287.85;;;275.80;;
29236;SDS011;16266;50.866;4.398;2023-08-20T04:04:06;304.23;;;291.35;;
29236;SDS011;16266;50.866;4.398;2023-08-20T04:06:32;322.55;;;308.65;;
29236;SDS011;16266;50.866;4.398;2023-08-20T04:08:57;469.60;;;447.13;;
29236;SDS011;16266;50.866;4.398;2023-08-20T04:11:23;364.05;;;348.08;;
29236;SDS011;16266;50.866;4.398;2023-08-20T04:13:49;350.52;;;335.23;;
29236;SDS011;16266;50.866;4.398;2023-08-20T04:16:15;301.20;;;288.33;;
29236;SDS011;16266;50.866;4.398;2023-08-20T04:18:41;266.75;;;255.75;;
29236;SDS011;16266;50.866;4.398;2023-08-20T04:21:06;280.52;;;268.90;;
29236;SDS011;16266;50.866;4.398;2023-08-20T04:23:32;269.55;;;258.25;;
29236;SDS011;16266;50.866;4.398;2023-08-20T04:26:00;274.90;;;263.52;;
29236;SDS011;16266;50.866;4.398;2023-08-20T04:28:25;248.00;;;237.93;;
29236;SDS011;16266;50.866;4.398;2023-08-20T04:30:54;273.27;;;261.92;;
29236;SDS011;16266;50.866;4.398;2023-08-20T04:35:48;220.52;;;211.40;;
29236;SDS011;16266;50.866;4.398;2023-08-20T04:38:15;223.93;;;214.57;;
29236;SDS011;16266;50.866;4.398;2023-08-20T04:40:41;270.75;;;259.63;;
29236;SDS011;16266;50.866;4.398;2023-08-20T04:43:06;278.67;;;267.02;;
29236;SDS011;16266;50.866;4.398;2023-08-20T04:45:32;282.40;;;270.77;;
29236;SDS011;16266;50.866;4.398;2023-08-20T04:47:59;263.38;;;252.65;;
29236;SDS011;16266;50.866;4.398;2023-08-20T04:50:24;331.27;;;317.45;;
29236;SDS011;16266;50.866;4.398;2023-08-20T04:52:50;263.92;;;253.20;;
29236;SDS011;16266;50.866;4.398;2023-08-20T04:55:16;258.27;;;247.95;;
29236;SDS011;16266;50.866;4.398;2023-08-20T04:57:41;229.57;;;220.07;;
29236;SDS011;16266;50.866;4.398;2023-08-20T05:00:07;216.35;;;207.27;;
29236;SDS011;16266;50.866;4.398;2023-08-20T05:02:34;201.40;;;193.25;;
29236;SDS011;16266;50.866;4.398;2023-08-20T05:05:00;202.93;;;194.55;;
29236;SDS011;16266;50.866;4.398;2023-08-20T05:07:27;214.05;;;205.02;;
29236;SDS011;16266;50.866;4.398;2023-08-20T05:09:53;199.07;;;190.95;;
29236;SDS011;16266;50.866;4.398;2023-08-20T05:12:19;192.23;;;184.27;;
29236;SDS011;16266;50.866;4.398;2023-08-20T05:14:44;247.93;;;238.13;;
29236;SDS011;16266;50.866;4.398;2023-08-20T05:17:10;373.38;;;356.95;;
29236;SDS011;16266;50.866;4.398;2023-08-20T05:19:36;745.00;;;698.97;;
29236;SDS011;16266;50.866;4.398;2023-08-20T05:22:01;630.55;;;599.05;;
29236;SDS011;16266;50.866;4.398;2023-08-20T05:24:27;303.73;;;291.15;;
29236;SDS011;16266;50.866;4.398;2023-08-20T05:29:39;599.30;;;569.17;;
29236;SDS011;16266;50.866;4.398;2023-08-20T05:32:05;452.45;;;432.48;;
29236;SDS011;16266;50.866;4.398;2023-08-20T05:34:31;205.88;;;197.55;;
29236;SDS011;16266;50.866;4.398;2023-08-20T05:36:57;404.15;;;385.13;;
29236;SDS011;16266;50.866;4.398;2023-08-20T05:39:23;462.05;;;440.30;;
29236;SDS011;16266;50.866;4.398;2023-08-20T05:41:50;439.23;;;417.70;;
29236;SDS011;16266;50.866;4.398;2023-08-20T05:44:19;212.20;;;203.57;;
29236;SDS011;16266;50.866;4.398;2023-08-20T05:46:45;218.68;;;210.20;;
29236;SDS011;16266;50.866;4.398;2023-08-20T05:49:12;371.77;;;356.67;;
29236;SDS011;16266;50.866;4.398;2023-08-20T05:51:40;264.83;;;254.23;;
29236;SDS011;16266;50.866;4.398;2023-08-20T05:54:09;335.13;;;321.50;;
29236;SDS011;16266;50.866;4.398;2023-08-20T05:56:35;147.52;;;141.85;;
29236;SDS011;16266;50.866;4.398;2023-08-20T05:59:01;74.28;;;70.63;;
29236;SDS011;16266;50.866;4.398;2023-08-20T06:01:28;24.52;;;23.73;;
29236;SDS011;16266;50.866;4.398;2023-08-20T06:03:54;29.77;;;28.67;;
29236;SDS011;16266;50.866;4.398;2023-08-20T06:06:21;21.35;;;20.45;;
29236;SDS011;16266;50.866;4.398;2023-08-20T06:08:47;28.80;;;27.38;;
29236;SDS011;16266;50.866;4.398;2023-08-20T06:11:12;25.98;;;24.52;;
29236;SDS011;16266;50.866;4.398;2023-08-20T06:13:38;23.33;;;22.48;;
29236;SDS011;16266;50.866;4.398;2023-08-20T06:16:04;22.63;;;21.83;;
29236;SDS011;16266;50.866;4.398;2023-08-20T06:18:30;25.05;;;24.15;;
29236;SDS011;16266;50.866;4.398;2023-08-20T06:20:56;24.02;;;22.88;;
29236;SDS011;16266;50.866;4.398;2023-08-20T06:23:22;19.70;;;19.00;;
29236;SDS011;16266;50.866;4.398;2023-08-20T06:25:49;20.05;;;19.30;;
29236;SDS011;16266;50.866;4.398;2023-08-20T06:28:15;19.70;;;18.77;;
29236;SDS011;16266;50.866;4.398;2023-08-20T06:30:42;24.58;;;23.65;;
29236;SDS011;16266;50.866;4.398;2023-08-20T06:33:07;27.08;;;26.08;;
29236;SDS011;16266;50.866;4.398;2023-08-20T06:35:34;30.42;;;28.92;;
29236;SDS011;16266;50.866;4.398;2023-08-20T06:37:59;29.85;;;28.75;;
29236;SDS011;16266;50.866;4.398;2023-08-20T06:40:25;32.47;;;31.23;;
29236;SDS011;16266;50.866;4.398;2023-08-20T06:42:52;16.52;;;15.55;;
29236;SDS011;16266;50.866;4.398;2023-08-20T06:45:17;22.63;;;21.73;;
29236;SDS011;16266;50.866;4.398;2023-08-20T06:47:44;19.40;;;18.52;;
29236;SDS011;16266;50.866;4.398;2023-08-20T06:50:09;18.27;;;17.58;;
29236;SDS011;16266;50.866;4.398;2023-08-20T06:52:35;19.42;;;18.83;;
29236;SDS011;16266;50.866;4.398;2023-08-20T06:55:01;18.48;;;17.88;;
29236;SDS011;16266;50.866;4.398;2023-08-20T06:57:26;17.50;;;16.90;;
29236;SDS011;16266;50.866;4.398;2023-08-20T06:59:52;19.15;;;17.90;;
29236;SDS011;16266;50.866;4.398;2023-08-20T07:02:17;21.98;;;20.88;;
29236;SDS011;16266;50.866;4.398;2023-08-20T07:04:43;21.30;;;20.60;;
29236;SDS011;16266;50.866;4.398;2023-08-20T07:07:09;19.92;;;19.23;;
29236;SDS011;16266;50.866;4.398;2023-08-20T07:09:35;17.75;;;16.45;;
29236;SDS011;16266;50.866;4.398;2023-08-20T07:12:01;17.55;;;16.95;;
29236;SDS011;16266;50.866;4.398;2023-08-20T07:14:27;16.98;;;16.38;;
29236;SDS011;16266;50.866;4.398;2023-08-20T07:16:53;18.73;;;17.88;;
29236;SDS011;16266;50.866;4.398;2023-08-20T07:19:19;18.95;;;18.15;;
29236;SDS011;16266;50.866;4.398;2023-08-20T07:21:45;17.17;;;16.58;;
29236;SDS011;16266;50.866;4.398;2023-08-20T07:24:10;15.57;;;14.68;;
29236;SDS011;16266;50.866;4.398;2023-08-20T07:26:36;14.98;;;14.48;;
29236;SDS011;16266;50.866;4.398;2023-08-20T07:29:01;16.48;;;15.57;;
29236;SDS011;16266;50.866;4.398;2023-08-20T07:31:28;15.10;;;14.45;;
29236;SDS011;16266;50.866;4.398;2023-08-20T07:33:56;16.02;;;15.52;;
29236;SDS011;16266;50.866;4.398;2023-08-20T07:36:23;15.63;;;15.02;;
29236;SDS011;16266;50.866;4.398;2023-08-20T07:38:50;16.27;;;15.67;;
29236;SDS011;16266;50.866;4.398;2023-08-20T07:41:16;15.15;;;14.65;;
29236;SDS011;16266;50.866;4.398;2023-08-20T07:43:43;16.17;;;15.68;;
29236;SDS011;16266;50.866;4.398;2023-08-20T07:46:09;15.60;;;14.73;;
29236;SDS011;16266;50.866;4.398;2023-08-20T07:48:35;18.52;;;17.83;;
29236;SDS011;16266;50.866;4.398;2023-08-20T07:51:03;16.25;;;15.65;;
29236;SDS011;16266;50.866;4.398;2023-08-20T07:53:30;16.45;;;15.95;;
29236;SDS011;16266;50.866;4.398;2023-08-20T07:55:56;16.92;;;16.17;;
29236;SDS011;16266;50.866;4.398;2023-08-20T07:58:21;17.80;;;17.20;;
29236;SDS011;16266;50.866;4.398;2023-08-20T08:00:47;16.10;;;15.57;;
29236;SDS011;16266;50.866;4.398;2023-08-20T08:03:13;17.73;;;16.92;;
29236;SDS011;16266;50.866;4.398;2023-08-20T08:05:45;16.00;;;15.20;;
29236;SDS011;16266;50.866;4.398;2023-08-20T08:08:13;16.55;;;16.05;;
29236;SDS011;16266;50.866;4.398;2023-08-20T08:10:38;15.63;;;15.02;;
29236;SDS011;16266;50.866;4.398;2023-08-20T08:13:05;15.48;;;14.98;;
29236;SDS011;16266;50.866;4.398;2023-08-20T08:15:32;16.47;;;15.97;;
29236;SDS011;16266;50.866;4.398;2023-08-20T08:17:57;16.15;;;15.65;;
29236;SDS011;16266;50.866;4.398;2023-08-20T08:20:23;17.33;;;16.73;;
29236;SDS011;16266;50.866;4.398;2023-08-20T08:22:49;16.15;;;15.55;;
29236;SDS011;16266;50.866;4.398;2023-08-20T08:25:14;15.90;;;15.20;;
29236;SDS011;16266;50.866;4.398;2023-08-20T08:27:40;16.25;;;15.75;;
29236;SDS011;16266;50.866;4.398;2023-08-20T08:30:06;15.70;;;15.13;;
29236;SDS011;16266;50.866;4.398;2023-08-20T08:32:32;16.35;;;15.65;;
29236;SDS011;16266;50.866;4.398;2023-08-20T08:34:57;17.50;;;16.80;;
29236;SDS011;16266;50.866;4.398;2023-08-20T08:37:23;17.40;;;16.88;;
29236;SDS011;16266;50.866;4.398;2023-08-20T08:39:48;15.88;;;15.27;;
29236;SDS011;16266;50.866;4.398;2023-08-20T08:42:14;18.83;;;18.15;;
29236;SDS011;16266;50.866;4.398;2023-08-20T08:44:41;17.75;;;17.17;;
29236;SDS011;16266;50.866;4.398;2023-08-20T08:47:08;16.55;;;16.02;;
29236;SDS011;16266;50.866;4.398;2023-08-20T08:49:35;15.60;;;15.10;;
29236;SDS011;16266;50.866;4.398;2023-08-20T08:52:01;16.15;;;15.65;;
29236;SDS011;16266;50.866;4.398;2023-08-20T08:54:28;17.67;;;17.17;;
29236;SDS011;16266;50.866;4.398;2023-08-20T08:56:55;18.30;;;17.70;;
29236;SDS011;16266;50.866;4.398;2023-08-20T08:59:21;20.40;;;19.75;;
29236;SDS011;16266;50.866;4.398;2023-08-20T09:01:47;16.15;;;15.65;;
29236;SDS011;16266;50.866;4.398;2023-08-20T09:04:12;16.60;;;16.10;;
29236;SDS011;16266;50.866;4.398;2023-08-20T09:06:45;17.35;;;16.75;;
29236;SDS011;16266;50.866;4.398;2023-08-20T09:09:16;16.63;;;16.13;;
29236;SDS011;16266;50.866;4.398;2023-08-20T09:11:42;16.60;;;15.68;;
29236;SDS011;16266;50.866;4.398;2023-08-20T09:14:08;14.98;;;14.48;;
29236;SDS011;16266;50.866;4.398;2023-08-20T09:16:45;17.33;;;16.83;;
29236;SDS011;16266;50.866;4.398;2023-08-20T09:19:10;16.77;;;16.27;;
29236;SDS011;16266;50.866;4.398;2023-08-20T09:21:36;16.17;;;15.68;;
29236;SDS011;16266;50.866;4.398;2023-08-20T09:24:02;15.38;;;14.88;;
29236;SDS011;16266;50.866;4.398;2023-08-20T09:26:27;16.50;;;16.00;;
29236;SDS011;16266;50.866;4.398;2023-08-20T09:28:54;17.70;;;17.13;;
29236;SDS011;16266;50.866;4.398;2023-08-20T09:31:21;16.90;;;16.38;;
29236;SDS011;16266;50.866;4.398;2023-08-20T09:34:04;15.75;;;15.25;;
29236;SDS011;16266;50.866;4.398;2023-08-20T09:36:31;18.23;;;17.63;;
29236;SDS011;16266;50.866;4.398;2023-08-20T09:38:57;16.73;;;16.13;;
29236;SDS011;16266;50.866;4.398;2023-08-20T09:41:23;16.90;;;16.40;;
29236;SDS011;16266;50.866;4.398;2023-08-20T09:43:49;15.70;;;15.20;;
29236;SDS011;16266;50.866;4.398;2023-08-20T09:46:21;18.00;;;17.33;;
29236;SDS011;16266;50.866;4.398;2023-08-20T09:48:52;17.52;;;17.00;;
29236;SDS011;16266;50.866;4.398;2023-08-20T09:51:24;17.20;;;16.60;;
29236;SDS011;16266;50.866;4.398;2023-08-20T09:54:03;15.07;;;14.57;;
29236;SDS011;16266;50.866;4.398;2023-08-20T09:56:31;17.23;;;16.63;;
29236;SDS011;16266;50.866;4.398;2023-08-20T09:59:00;18.23;;;17.63;;
29236;SDS011;16266;50.866;4.398;2023-08-20T10:01:26;18.15;;;17.55;;
29236;SDS011;16266;50.866;4.398;2023-08-20T10:03:53;18.55;;;17.73;;
29236;SDS011;16266;50.866;4.398;2023-08-20T10:06:19;16.60;;;16.10;;
29236;SDS011;16266;50.866;4.398;2023-08-20T10:08:45;16.33;;;15.73;;
29236;SDS011;16266;50.866;4.398;2023-08-20T10:11:12;18.33;;;17.73;;
29236;SDS011;16266;50.866;4.398;2023-08-20T10:13:38;17.55;;;16.98;;
29236;SDS011;16266;50.866;4.398;2023-08-20T10:16:04;17.23;;;16.65;;
29236;SDS011;16266;50.866;4.398;2023-08-20T10:18:30;16.60;;;16.10;;
29236;SDS011;16266;50.866;4.398;2023-08-20T10:20:58;14.82;;;14.32;;
29236;SDS011;16266;50.866;4.398;2023-08-20T10:23:24;17.08;;;16.58;;
29236;SDS011;16266;50.866;4.398;2023-08-20T10:25:51;15.57;;;14.23;;
29236;SDS011;16266;50.866;4.398;2023-08-20T10:28:25;15.33;;;14.83;;
29236;SDS011;16266;50.866;4.398;2023-08-20T10:31:08;17.80;;;17.20;;
29236;SDS011;16266;50.866;4.398;2023-08-20T10:33:38;16.73;;;16.10;;
29236;SDS011;16266;50.866;4.398;2023-08-20T10:38:40;17.35;;;16.75;;
29236;SDS011;16266;50.866;4.398;2023-08-20T10:41:06;17.02;;;16.52;;
29236;SDS011;16266;50.866;4.398;2023-08-20T10:43:37;15.75;;;15.25;;
29236;SDS011;16266;50.866;4.398;2023-08-20T10:48:38;14.68;;;14.23;;
29236;SDS011;16266;50.866;4.398;2023-08-20T10:59:22;15.13;;;14.63;;
29236;SDS011;16266;50.866;4.398;2023-08-20T11:01:50;14.82;;;14.32;;
29236;SDS011;16266;50.866;4.398;2023-08-20T11:04:21;15.95;;;15.45;;
29236;SDS011;16266;50.866;4.398;2023-08-20T11:06:53;15.38;;;14.80;;
29236;SDS011;16266;50.866;4.398;2023-08-20T11:09:21;16.42;;;15.90;;
29236;SDS011;16266;50.866;4.398;2023-08-20T11:11:48;17.15;;;16.58;;
29236;SDS011;16266;50.866;4.398;2023-08-20T11:14:14;18.02;;;17.42;;
29236;SDS011;16266;50.866;4.398;2023-08-20T11:16:40;15.18;;;14.68;;
29236;SDS011;16266;50.866;4.398;2023-08-20T11:19:07;16.00;;;15.15;;
29236;SDS011;16266;50.866;4.398;2023-08-20T11:21:42;16.73;;;16.23;;
29236;SDS011;16266;50.866;4.398;2023-08-20T11:24:09;14.52;;;14.07;;
29236;SDS011;16266;50.866;4.398;2023-08-20T11:26:36;16.00;;;15.50;;
29236;SDS011;16266;50.866;4.398;2023-08-20T11:29:08;14.43;;;13.98;;
29236;SDS011;16266;50.866;4.398;2023-08-20T11:31:35;17.40;;;16.75;;
29236;SDS011;16266;50.866;4.398;2023-08-20T11:34:02;17.30;;;16.80;;
29236;SDS011;16266;50.866;4.398;2023-08-20T11:36:28;15.48;;;14.98;;
29236;SDS011;16266;50.866;4.398;2023-08-20T11:38:54;16.35;;;15.73;;
29236;SDS011;16266;50.866;4.398;2023-08-20T11:41:20;17.05;;;16.45;;
29236;SDS011;16266;50.866;4.398;2023-08-20T11:43:47;15.40;;;14.90;;
29236;SDS011;16266;50.866;4.398;2023-08-20T11:46:14;16.98;;;16.38;;
29236;SDS011;16266;50.866;4.398;2023-08-20T11:51:30;16.77;;;16.17;;
29236;SDS011;16266;50.866;4.398;2023-08-20T11:54:01;15.65;;;15.13;;
29236;SDS011;16266;50.866;4.398;2023-08-20T11:56:28;17.05;;;16.42;;
29236;SDS011;16266;50.866;4.398;2023-08-20T11:58:58;16.73;;;16.13;;
29236;SDS011;16266;50.866;4.398;2023-08-20T12:01:24;17.17;;;16.58;;
29236;SDS011;16266;50.866;4.398;2023-08-20T12:03:50;24.50;;;23.70;;
29236;SDS011;16266;50.866;4.398;2023-08-20T12:06:16;14.38;;;13.95;;
29236;SDS011;16266;50.866;4.398;2023-08-20T12:08:46;15.88;;;15.38;;
29236;SDS011;16266;50.866;4.398;2023-08-20T12:11:12;15.98;;;15.35;;
29236;SDS011;16266;50.866;4.398;2023-08-20T12:13:38;15.45;;;14.90;;
29236;SDS011;16266;50.866;4.398;2023-08-20T12:16:03;16.42;;;15.82;;
29236;SDS011;16266;50.866;4.398;2023-08-20T12:18:29;15.52;;;15.02;;
29236;SDS011;16266;50.866;4.398;2023-08-20T12:20:55;16.73;;;16.13;;
29236;SDS011;16266;50.866;4.398;2023-08-20T12:23:21;17.48;;;16.60;;
29236;SDS011;16266;50.866;4.398;2023-08-20T12:25:50;17.13;;;16.60;;
29236;SDS011;16266;50.866;4.398;2023-08-20T12:28:17;16.35;;;15.85;;
29236;SDS011;16266;50.866;4.398;2023-08-20T12:30:43;16.40;;;15.82;;
29236;SDS011;16266;50.866;4.398;2023-08-20T12:33:09;16.20;;;15.60;;
29236;SDS011;16266;50.866;4.398;2023-08-20T12:35:36;15.57;;;15.07;;
29236;SDS011;16266;50.866;4.398;2023-08-20T12:38:01;14.70;;;14.20;;
29236;SDS011;16266;50.866;4.398;2023-08-20T12:40:28;15.60;;;15.00;;
29236;SDS011;16266;50.866;4.398;2023-08-20T12:42:54;16.35;;;15.85;;
29236;SDS011;16266;50.866;4.398;2023-08-20T12:45:20;15.93;;;15.43;;
29236;SDS011;16266;50.866;4.398;2023-08-20T12:47:45;16.95;;;16.17;;
29236;SDS011;16266;50.866;4.398;2023-08-20T12:50:11;16.92;;;16.33;;
29236;SDS011;16266;50.866;4.398;2023-08-20T12:52:39;15.15;;;14.65;;
29236;SDS011;16266;50.866;4.398;2023-08-20T12:55:05;17.20;;;16.70;;
29236;SDS011;16266;50.866;4.398;2023-08-20T12:57:34;17.63;;;17.00;;
29236;SDS011;16266;50.866;4.398;2023-08-20T13:00:20;16.20;;;15.50;;
29236;SDS011;16266;50.866;4.398;2023-08-20T13:02:47;15.55;;;15.05;;
29236;SDS011;16266;50.866;4.398;2023-08-20T13:05:15;20.05;;;17.63;;
29236;SDS011;16266;50.866;4.398;2023-08-20T13:07:41;20.25;;;19.35;;
29236;SDS011;16266;50.866;4.398;2023-08-20T13:10:08;15.13;;;14.63;;
29236;SDS011;16266;50.866;4.398;2023-08-20T13:12:36;19.88;;;19.17;;
29236;SDS011;16266;50.866;4.398;2023-08-20T13:15:03;35.15;;;33.88;;
29236;SDS011;16266;50.866;4.398;2023-08-20T13:17:29;350.30;;;335.83;;
29236;SDS011;16266;50.866;4.398;2023-08-20T13:19:55;168.88;;;162.48;;
29236;SDS011;16266;50.866;4.398;2023-08-20T13:22:22;181.95;;;174.98;;
29236;SDS011;16266;50.866;4.398;2023-08-20T13:24:47;196.00;;;188.60;;
29236;SDS011;16266;50.866;4.398;2023-08-20T13:27:13;218.43;;;210.20;;
29236;SDS011;16266;50.866;4.398;2023-08-20T13:29:40;216.40;;;208.27;;
29236;SDS011;16266;50.866;4.398;2023-08-20T13:32:06;185.45;;;178.30;;
29236;SDS011;16266;50.866;4.398;2023-08-20T13:34:31;153.55;;;147.75;;
29236;SDS011;16266;50.866;4.398;2023-08-20T13:36:57;58.65;;;56.25;;
29236;SDS011;16266;50.866;4.398;2023-08-20T13:39:23;44.22;;;42.67;;
29236;SDS011;16266;50.866;4.398;2023-08-20T13:41:50;32.10;;;31.00;;
29236;SDS011;16266;50.866;4.398;2023-08-20T13:44:16;23.67;;;22.88;;
29236;SDS011;16266;50.866;4.398;2023-08-20T13:46:42;21.50;;;20.80;;
29236;SDS011;16266;50.866;4.398;2023-08-20T13:49:07;19.67;;;18.88;;
29236;SDS011;16266;50.866;4.398;2023-08-20T13:51:33;18.98;;;18.38;;
29236;SDS011;16266;50.866;4.398;2023-08-20T13:53:58;16.17;;;15.68;;
29236;SDS011;16266;50.866;4.398;2023-08-20T13:56:24;16.20;;;15.70;;
29236;SDS011;16266;50.866;4.398;2023-08-20T13:58:52;17.77;;;17.13;;
29236;SDS011;16266;50.866;4.398;2023-08-20T14:01:18;16.63;;;16.13;;
29236;SDS011;16266;50.866;4.398;2023-08-20T14:03:43;18.52;;;17.50;;
29236;SDS011;16266;50.866;4.398;2023-08-20T14:06:09;18.00;;;17.40;;
29236;SDS011;16266;50.866;4.398;2023-08-20T14:08:34;14.75;;;14.27;;
29236;SDS011;16266;50.866;4.398;2023-08-20T14:11:00;14.70;;;14.07;;
29236;SDS011;16266;50.866;4.398;2023-08-20T14:15:54;17.80;;;17.20;;
29236;SDS011;16266;50.866;4.398;2023-08-20T14:18:20;18.13;;;17.52;;
29236;SDS011;16266;50.866;4.398;2023-08-20T14:20:46;18.08;;;17.38;;
29236;SDS011;16266;50.866;4.398;2023-08-20T14:23:11;17.92;;;17.33;;
29236;SDS011;16266;50.866;4.398;2023-08-20T14:25:37;15.20;;;14.32;;
29236;SDS011;16266;50.866;4.398;2023-08-20T14:28:05;16.10;;;15.60;;
29236;SDS011;16266;50.866;4.398;2023-08-20T14:30:31;16.08;;;15.48;;
29236;SDS011;16266;50.866;4.398;2023-08-20T14:33:02;19.15;;;17.55;;
29236;SDS011;16266;50.866;4.398;2023-08-20T14:35:30;15.43;;;14.93;;
29236;SDS011;16266;50.866;4.398;2023-08-20T14:37:56;17.92;;;17.00;;
29236;SDS011;16266;50.866;4.398;2023-08-20T14:40:23;22.95;;;22.20;;
29236;SDS011;16266;50.866;4.398;2023-08-20T14:42:49;25.15;;;24.25;;